sensor_id;sensor_type;location;lat;lon;timestamp;pressure;altitude;pressure_sealevel;temperature;humidity
12913;BME280;6524;51.368;11.984;2023-05-09T04:00:14;100814.59;;;5.37;59.27
12913;BME280;6524;51.368;11.984;2023-05-09T04:05:15;100812.28;;;5.29;59.25
12913;BME280;6524;51.368;11.984;2023-05-09T04:10:16;100814.31;;;4.96;60.04
12913;BME280;6524;51.368;11.984;2023-05-09T04:15:16;100807.31;;;4.96;59.59
12913;BME280;6524;51.368;11.984;2023-05-09T04:20:17;100812.22;;;5.54;58.06
12913;BME280;6524;51.368;11.984;2023-05-09T04:25:18;100806.22;;;5.74;57.12
12913;BME280;6524;51.368;11.984;2023-05-09T04:30:19;100804.47;;;5.28;58.72
12913;BME280;6524;51.368;11.984;2023-05-09T04:35:20;100793.63;;;5.13;59.05
12913;BME280;6524;51.368;11.984;2023-05-09T04:40:21;100791.25;;;5.07;58.78
12913;BME280;6524;51.368;11.984;2023-05-09T04:45:22;100787.59;;;5.58;57.41
12913;BME280;6524;51.368;11.984;2023-05-09T04:50:22;100795.28;;;5.63;56.68
12913;BME280;6524;51.368;11.984;2023-05-09T04:55:23;100792.25;;;5.74;56.07
12913;BME280;6524;51.368;11.984;2023-05-09T05:00:23;100793.81;;;6.22;55.00
12913;BME280;6524;51.368;11.984;2023-05-09T05:05:24;100778.22;;;6.19;55.07
12913;BME280;6524;51.368;11.984;2023-05-09T05:10:24;100771.66;;;6.71;53.19
12913;BME280;6524;51.368;11.984;2023-05-09T05:15:24;100777.13;;;7.25;52.16
12913;BME280;6524;51.368;11.984;2023-05-09T05:20:26;100776.59;;;7.37;51.56
12913;BME280;6524;51.368;11.984;2023-05-09T05:25:26;100775.59;;;7.21;52.04
12913;BME280;6524;51.368;11.984;2023-05-09T05:30:26;100771.59;;;7.50;51.27
12913;BME280;6524;51.368;11.984;2023-05-09T05:35:27;100767.03;;;7.91;50.27
12913;BME280;6524;51.368;11.984;2023-05-09T05:40:28;100765.88;;;7.42;51.18
12913;BME280;6524;51.368;11.984;2023-05-09T05:45:28;100768.56;;;7.40;51.09
12913;BME280;6524;51.368;11.984;2023-05-09T05:50:30;100761.34;;;8.18;49.77
12913;BME280;6524;51.368;11.984;2023-05-09T05:55:30;100754.59;;;7.95;49.84
12913;BME280;6524;51.368;11.984;2023-05-09T06:00:30;100752.41;;;8.39;48.78
12913;BME280;6524;51.368;11.984;2023-05-09T06:05:30;100748.66;;;8.78;48.19
12913;BME280;6524;51.368;11.984;2023-05-09T06:10:31;100737.84;;;9.00;47.60
12913;BME280;6524;51.368;11.984;2023-05-09T06:15:32;100737.53;;;9.22;46.53
12913;BME280;6524;51.368;11.984;2023-05-09T06:20:33;100741.59;;;9.12;47.80
12913;BME280;6524;51.368;11.984;2023-05-09T06:25:34;100737.47;;;9.40;46.51
12913;BME280;6524;51.368;11.984;2023-05-09T06:30:35;100737.13;;;9.46;45.46
12913;BME280;6524;51.368;11.984;2023-05-09T06:35:35;100732.69;;;9.30;46.11
12913;BME280;6524;51.368;11.984;2023-05-09T06:40:35;100728.31;;;10.67;43.54
12913;BME280;6524;51.368;11.984;2023-05-09T06:45:36;100727.03;;;11.03;43.38
12913;BME280;6524;51.368;11.984;2023-05-09T06:50:36;100711.19;;;11.45;41.74
12913;BME280;6524;51.368;11.984;2023-05-09T06:55:37;100705.50;;;11.65;40.84
12913;BME280;6524;51.368;11.984;2023-05-09T07:00:38;100701.44;;;11.99;39.42
12913;BME280;6524;51.368;11.984;2023-05-09T07:05:38;100688.38;;;12.23;39.41
12913;BME280;6524;51.368;11.984;2023-05-09T07:10:41;100698.66;;;13.89;37.24
12913;BME280;6524;51.368;11.984;2023-05-09T07:15:42;100685.09;;;14.97;35.63
12913;BME280;6524;51.368;11.984;2023-05-09T07:20:43;100679.50;;;16.19;32.99
12913;BME280;6524;51.368;11.984;2023-05-09T07:25:43;100682.59;;;19.09;28.64
12913;BME280;6524;51.368;11.984;2023-05-09T07:30:44;100690.22;;;21.82;25.78
12913;BME280;6524;51.368;11.984;2023-05-09T07:35:45;100684.97;;;23.87;23.83
12913;BME280;6524;51.368;11.984;2023-05-09T07:40:45;100683.25;;;22.61;24.53
12913;BME280;6524;51.368;11.984;2023-05-09T07:45:46;100667.50;;;21.44;25.34
12913;BME280;6524;51.368;11.984;2023-05-09T07:50:46;100646.25;;;19.52;28.87
12913;BME280;6524;51.368;11.984;2023-05-09T07:55:47;100638.69;;;19.02;28.50
12913;BME280;6524;51.368;11.984;2023-05-09T08:00:49;100636.13;;;18.35;29.68
12913;BME280;6524;51.368;11.984;2023-05-09T08:05:53;100639.06;;;18.32;29.72
12913;BME280;6524;51.368;11.984;2023-05-09T08:10:55;100619.94;;;18.74;30.05
12913;BME280;6524;51.368;11.984;2023-05-09T08:15:56;100605.59;;;17.81;31.03
12913;BME280;6524;51.368;11.984;2023-05-09T08:20:56;100603.53;;;18.22;30.73
12913;BME280;6524;51.368;11.984;2023-05-09T08:25:58;100594.47;;;17.95;30.27
12913;BME280;6524;51.368;11.984;2023-05-09T08:30:59;100589.09;;;18.42;29.70
12913;BME280;6524;51.368;11.984;2023-05-09T08:36:00;100582.19;;;18.77;29.76
12913;BME280;6524;51.368;11.984;2023-05-09T08:41:01;100580.25;;;19.51;29.68
12913;BME280;6524;51.368;11.984;2023-05-09T08:46:06;100581.00;;;18.89;28.85
12913;BME280;6524;51.368;11.984;2023-05-09T08:51:07;100570.84;;;19.47;29.88
12913;BME280;6524;51.368;11.984;2023-05-09T08:56:10;100570.53;;;19.50;30.30
12913;BME280;6524;51.368;11.984;2023-05-09T09:01:12;100565.50;;;19.11;33.68
12913;BME280;6524;51.368;11.984;2023-05-09T09:06:14;100553.34;;;18.98;31.79
12913;BME280;6524;51.368;11.984;2023-05-09T09:11:17;100549.41;;;18.93;31.06
12913;BME280;6524;51.368;11.984;2023-05-09T09:16:21;100555.22;;;19.42;30.13
12913;BME280;6524;51.368;11.984;2023-05-09T09:21:22;100545.97;;;19.00;30.59
12913;BME280;6524;51.368;11.984;2023-05-09T09:26:24;100546.25;;;18.62;29.90
12913;BME280;6524;51.368;11.984;2023-05-09T09:31:30;100535.34;;;19.88;29.52
12913;BME280;6524;51.368;11.984;2023-05-09T09:36:32;100533.66;;;19.43;29.40
12913;BME280;6524;51.368;11.984;2023-05-09T09:41:38;100532.25;;;19.57;28.86
12913;BME280;6524;51.368;11.984;2023-05-09T09:46:42;100518.19;;;19.55;28.32
12913;BME280;6524;51.368;11.984;2023-05-09T09:51:44;100513.72;;;20.16;27.24
12913;BME280;6524;51.368;11.984;2023-05-09T09:56:49;100505.72;;;20.32;27.44
12913;BME280;6524;51.368;11.984;2023-05-09T10:07:01;100500.28;;;20.50;26.35
12913;BME280;6524;51.368;11.984;2023-05-09T10:12:07;100501.31;;;20.23;26.72
12913;BME280;6524;51.368;11.984;2023-05-09T10:17:10;100486.38;;;20.47;25.99
12913;BME280;6524;51.368;11.984;2023-05-09T10:22:14;100476.81;;;20.52;25.81
12913;BME280;6524;51.368;11.984;2023-05-09T10:27:21;100466.41;;;20.49;25.46
12913;BME280;6524;51.368;11.984;2023-05-09T10:32:38;100462.03;;;20.40;25.75
12913;BME280;6524;51.368;11.984;2023-05-09T10:37:41;100460.41;;;20.80;25.50
12913;BME280;6524;51.368;11.984;2023-05-09T10:42:42;100445.00;;;21.23;24.48
12913;BME280;6524;51.368;11.984;2023-05-09T10:47:44;100433.41;;;21.39;25.91
12913;BME280;6524;51.368;11.984;2023-05-09T10:58:18;100422.50;;;20.91;25.92
12913;BME280;6524;51.368;11.984;2023-05-09T11:03:19;100409.66;;;20.36;24.72
12913;BME280;6524;51.368;11.984;2023-05-09T11:08:28;100409.34;;;20.39;24.04
12913;BME280;6524;51.368;11.984;2023-05-09T11:13:30;100396.84;;;21.13;24.70
12913;BME280;6524;51.368;11.984;2023-05-09T11:18:31;100379.38;;;20.44;24.45
12913;BME280;6524;51.368;11.984;2023-05-09T11:23:32;100381.06;;;21.10;23.80
12913;BME280;6524;51.368;11.984;2023-05-09T11:28:37;100372.22;;;21.65;24.52
12913;BME280;6524;51.368;11.984;2023-05-09T11:33:39;100365.63;;;21.76;24.16
12913;BME280;6524;51.368;11.984;2023-05-09T11:38:41;100341.47;;;20.79;25.35
12913;BME280;6524;51.368;11.984;2023-05-09T11:43:42;100343.09;;;21.29;24.71
12913;BME280;6524;51.368;11.984;2023-05-09T11:48:47;100325.97;;;21.78;25.35
12913;BME280;6524;51.368;11.984;2023-05-09T11:53:48;100339.22;;;21.40;25.71
12913;BME280;6524;51.368;11.984;2023-05-09T11:58:50;100327.16;;;21.76;24.80
12913;BME280;6524;51.368;11.984;2023-05-09T12:03:51;100320.50;;;22.17;24.68
12913;BME280;6524;51.368;11.984;2023-05-09T12:08:54;100307.25;;;21.54;24.86
12913;BME280;6524;51.368;11.984;2023-05-09T12:13:54;100299.66;;;21.65;25.28
12913;BME280;6524;51.368;11.984;2023-05-09T12:18:55;100294.75;;;22.46;24.19
12913;BME280;6524;51.368;11.984;2023-05-09T12:23:56;100293.72;;;22.01;23.99
12913;BME280;6524;51.368;11.984;2023-05-09T12:28:57;100267.25;;;22.59;23.96
12913;BME280;6524;51.368;11.984;2023-05-09T12:33:57;100259.28;;;22.80;22.45
12913;BME280;6524;51.368;11.984;2023-05-09T12:38:58;100251.41;;;22.41;23.12
12913;BME280;6524;51.368;11.984;2023-05-09T12:43:58;100242.97;;;22.97;22.30
12913;BME280;6524;51.368;11.984;2023-05-09T12:48:59;100241.19;;;22.13;23.39
12913;BME280;6524;51.368;11.984;2023-05-09T12:54:02;100228.78;;;22.50;21.75
12913;BME280;6524;51.368;11.984;2023-05-09T12:59:09;100214.97;;;22.15;22.14
12913;BME280;6524;51.368;11.984;2023-05-09T13:04:10;100199.25;;;22.42;22.78
12913;BME280;6524;51.368;11.984;2023-05-09T13:09:10;100196.13;;;22.53;21.82
12913;BME280;6524;51.368;11.984;2023-05-09T13:14:12;100197.81;;;23.14;21.68
12913;BME280;6524;51.368;11.984;2023-05-09T13:19:13;100191.31;;;21.88;21.59
12913;BME280;6524;51.368;11.984;2023-05-09T13:24:14;100169.94;;;22.77;21.09
12913;BME280;6524;51.368;11.984;2023-05-09T13:29:14;100186.00;;;22.40;21.13
12913;BME280;6524;51.368;11.984;2023-05-09T13:34:15;100171.06;;;22.67;20.79
12913;BME280;6524;51.368;11.984;2023-05-09T13:39:16;100170.97;;;22.46;21.50
12913;BME280;6524;51.368;11.984;2023-05-09T13:44:17;100148.06;;;22.80;21.09
12913;BME280;6524;51.368;11.984;2023-05-09T13:49:18;100143.59;;;22.72;21.53
12913;BME280;6524;51.368;11.984;2023-05-09T13:54:19;100127.16;;;21.85;22.52
12913;BME280;6524;51.368;11.984;2023-05-09T13:59:21;100122.91;;;22.28;22.16
12913;BME280;6524;51.368;11.984;2023-05-09T14:04:21;100124.63;;;21.83;21.98
12913;BME280;6524;51.368;11.984;2023-05-09T14:09:25;100121.81;;;22.14;21.77
12913;BME280;6524;51.368;11.984;2023-05-09T14:14:26;100117.06;;;22.25;22.25
12913;BME280;6524;51.368;11.984;2023-05-09T14:19:27;100125.59;;;22.05;22.17
12913;BME280;6524;51.368;11.984;2023-05-09T14:24:27;100117.09;;;22.16;21.35
12913;BME280;6524;51.368;11.984;2023-05-09T14:29:30;100105.03;;;21.97;21.16
12913;BME280;6524;51.368;11.984;2023-05-09T14:34:31;100098.97;;;22.48;20.65
12913;BME280;6524;51.368;11.984;2023-05-09T14:39:33;100086.84;;;21.85;19.80
12913;BME280;6524;51.368;11.984;2023-05-09T14:44:33;100084.75;;;21.72;21.12
12913;BME280;6524;51.368;11.984;2023-05-09T14:49:35;100080.28;;;21.41;20.72
12913;BME280;6524;51.368;11.984;2023-05-09T14:54:36;100072.69;;;21.45;20.52
12913;BME280;6524;51.368;11.984;2023-05-09T14:59:36;100065.66;;;21.44;20.65
12913;BME280;6524;51.368;11.984;2023-05-09T15:04:37;100054.53;;;21.01;20.90
12913;BME280;6524;51.368;11.984;2023-05-09T15:09:38;100037.13;;;20.18;21.81
12913;BME280;6524;51.368;11.984;2023-05-09T15:14:38;100041.88;;;20.47;21.92
12913;BME280;6524;51.368;11.984;2023-05-09T15:19:42;100031.13;;;19.91;21.98
12913;BME280;6524;51.368;11.984;2023-05-09T15:24:42;100034.00;;;19.74;22.95
12913;BME280;6524;51.368;11.984;2023-05-09T15:29:44;100024.13;;;19.25;23.16
12913;BME280;6524;51.368;11.984;2023-05-09T15:34:46;100028.47;;;19.51;23.43
12913;BME280;6524;51.368;11.984;2023-05-09T15:39:47;100025.16;;;19.40;23.21
12913;BME280;6524;51.368;11.984;2023-05-09T15:44:47;100012.44;;;19.18;23.39
12913;BME280;6524;51.368;11.984;2023-05-09T15:49:48;100011.56;;;19.09;23.50
12913;BME280;6524;51.368;11.984;2023-05-09T15:54:49;100003.53;;;19.09;23.18
12913;BME280;6524;51.368;11.984;2023-05-09T15:59:49;99994.25;;;18.63;23.38
12913;BME280;6524;51.368;11.984;2023-05-09T16:04:53;99993.09;;;18.73;23.50
12913;BME280;6524;51.368;11.984;2023-05-09T16:09:54;99973.22;;;18.84;23.53
12913;BME280;6524;51.368;11.984;2023-05-09T16:14:54;99959.16;;;18.82;23.86
12913;BME280;6524;51.368;11.984;2023-05-09T16:19:55;99954.34;;;18.27;25.16
12913;BME280;6524;51.368;11.984;2023-05-09T16:24:55;99942.53;;;18.03;26.00
12913;BME280;6524;51.368;11.984;2023-05-09T16:29:56;99941.69;;;18.45;25.55
12913;BME280;6524;51.368;11.984;2023-05-09T16:34:57;99939.53;;;17.98;26.13
12913;BME280;6524;51.368;11.984;2023-05-09T16:39:57;99937.34;;;17.76;26.38
12913;BME280;6524;51.368;11.984;2023-05-09T16:44:58;99922.56;;;17.55;26.76
12913;BME280;6524;51.368;11.984;2023-05-09T16:49:59;99932.41;;;17.29;27.03
12913;BME280;6524;51.368;11.984;2023-05-09T16:55:00;99905.16;;;17.43;27.24
12913;BME280;6524;51.368;11.984;2023-05-09T17:00:01;99904.16;;;17.18;27.57
12913;BME280;6524;51.368;11.984;2023-05-09T17:05:02;99910.31;;;17.19;27.60
12913;BME280;6524;51.368;11.984;2023-05-09T17:10:03;99893.00;;;17.23;27.88
12913;BME280;6524;51.368;11.984;2023-05-09T17:15:06;99893.72;;;16.53;28.67
12913;BME280;6524;51.368;11.984;2023-05-09T17:20:10;99891.09;;;16.97;28.41
12913;BME280;6524;51.368;11.984;2023-05-09T17:25:11;99896.34;;;16.45;29.36
12913;BME280;6524;51.368;11.984;2023-05-09T17:30:12;99893.13;;;16.32;29.64
12913;BME280;6524;51.368;11.984;2023-05-09T17:35:12;99872.78;;;15.95;29.91
12913;BME280;6524;51.368;11.984;2023-05-09T17:40:13;99883.47;;;15.85;30.17
12913;BME280;6524;51.368;11.984;2023-05-09T17:45:14;99878.28;;;16.11;30.33
12913;BME280;6524;51.368;11.984;2023-05-09T17:50:15;99881.03;;;16.19;30.90
12913;BME280;6524;51.368;11.984;2023-05-09T17:55:16;99877.81;;;15.98;30.67
12913;BME280;6524;51.368;11.984;2023-05-09T18:00:17;99870.88;;;16.05;30.66
12913;BME280;6524;51.368;11.984;2023-05-09T18:05:18;99857.28;;;15.33;32.18
12913;BME280;6524;51.368;11.984;2023-05-09T18:10:19;99864.75;;;15.67;32.19
12913;BME280;6524;51.368;11.984;2023-05-09T18:15:20;99861.75;;;15.43;32.37
12913;BME280;6524;51.368;11.984;2023-05-09T18:20:20;99864.38;;;15.05;33.17
12913;BME280;6524;51.368;11.984;2023-05-09T18:25:22;99865.50;;;14.25;34.50
12913;BME280;6524;51.368;11.984;2023-05-09T18:30:22;99868.16;;;14.64;33.96
12913;BME280;6524;51.368;11.984;2023-05-09T18:35:23;99872.13;;;14.00;35.40
12913;BME280;6524;51.368;11.984;2023-05-09T18:40:24;99873.03;;;14.49;35.10
12913;BME280;6524;51.368;11.984;2023-05-09T18:45:24;99872.41;;;14.07;35.52
12913;BME280;6524;51.368;11.984;2023-05-09T18:50:25;99868.81;;;14.17;36.25
12913;BME280;6524;51.368;11.984;2023-05-09T18:55:25;99866.34;;;14.45;35.61
12913;BME280;6524;51.368;11.984;2023-05-09T19:00:27;99866.59;;;14.23;36.61
12913;BME280;6524;51.368;11.984;2023-05-09T19:05:27;99860.88;;;13.87;37.37
12913;BME280;6524;51.368;11.984;2023-05-09T19:10:29;99855.19;;;13.91;37.05
12913;BME280;6524;51.368;11.984;2023-05-09T19:15:30;99855.28;;;13.80;37.52
12913;BME280;6524;51.368;11.984;2023-05-09T19:20:31;99848.41;;;13.16;39.07
12913;BME280;6524;51.368;11.984;2023-05-09T19:25:31;99853.66;;;13.99;38.02
12913;BME280;6524;51.368;11.984;2023-05-09T19:30:33;99854.31;;;13.81;38.39
12913;BME280;6524;51.368;11.984;2023-05-09T19:35:35;99849.16;;;13.89;37.93
12913;BME280;6524;51.368;11.984;2023-05-09T19:40:37;99852.03;;;13.36;39.51
12913;BME280;6524;51.368;11.984;2023-05-09T19:45:38;99837.53;;;13.19;40.24
12913;BME280;6524;51.368;11.984;2023-05-09T19:50:39;99831.78;;;13.66;39.84
12913;BME280;6524;51.368;11.984;2023-05-09T19:55:40;99835.16;;;12.95;41.09
12913;BME280;6524;51.368;11.984;2023-05-09T20:00:47;99830.16;;;13.23;40.65
12913;BME280;6524;51.368;11.984;2023-05-09T20:05:47;99826.63;;;12.92;41.32
12913;BME280;6524;51.368;11.984;2023-05-09T20:10:48;99822.94;;;12.62;41.93
12913;BME280;6524;51.368;11.984;2023-05-09T20:15:48;99818.41;;;13.16;40.70
12913;BME280;6524;51.368;11.984;2023-05-09T20:20:49;99820.97;;;13.27;40.51
12913;BME280;6524;51.368;11.984;2023-05-09T20:25:50;99821.47;;;12.90;41.21
12913;BME280;6524;51.368;11.984;2023-05-09T20:30:50;99812.66;;;13.11;41.19
12913;BME280;6524;51.368;11.984;2023-05-09T20:35:51;99808.41;;;12.45;42.63
12913;BME280;6524;51.368;11.984;2023-05-09T20:40:51;99808.75;;;12.20;43.30
12913;BME280;6524;51.368;11.984;2023-05-09T20:45:52;99801.19;;;12.47;42.37
12913;BME280;6524;51.368;11.984;2023-05-09T20:50:53;99807.75;;;12.32;43.02
12913;BME280;6524;51.368;11.984;2023-05-09T20:55:54;99803.81;;;11.83;44.04
12913;BME280;6524;51.368;11.984;2023-05-09T21:00:54;99803.56;;;11.86;43.84
12913;BME280;6524;51.368;11.984;2023-05-09T21:05:55;99800.47;;;11.81;43.94
12913;BME280;6524;51.368;11.984;2023-05-09T21:10:57;99794.69;;;11.31;45.12
12913;BME280;6524;51.368;11.984;2023-05-09T21:15:57;99790.13;;;11.67;44.49
12913;BME280;6524;51.368;11.984;2023-05-09T21:21:01;99789.38;;;11.76;44.41
12913;BME280;6524;51.368;11.984;2023-05-09T21:26:04;99784.94;;;11.54;44.79
12913;BME280;6524;51.368;11.984;2023-05-09T21:31:04;99779.44;;;11.68;44.33
12913;BME280;6524;51.368;11.984;2023-05-09T21:36:05;99783.38;;;11.51;44.72
12913;BME280;6524;51.368;11.984;2023-05-09T21:41:06;99774.13;;;11.01;46.13
12913;BME280;6524;51.368;11.984;2023-05-09T21:46:07;99779.75;;;11.63;44.70
12913;BME280;6524;51.368;11.984;2023-05-09T21:51:07;99768.84;;;11.57;45.08
12913;BME280;6524;51.368;11.984;2023-05-09T21:56:07;99773.03;;;11.71;44.10
12913;BME280;6524;51.368;11.984;2023-05-09T22:01:08;99763.53;;;10.89;46.34
12913;BME280;6524;51.368;11.984;2023-05-09T22:06:08;99753.50;;;10.59;47.26
12913;BME280;6524;51.368;11.984;2023-05-09T22:11:08;99753.97;;;11.22;45.69
12913;BME280;6524;51.368;11.984;2023-05-09T22:16:09;99746.13;;;11.21;45.42
12913;BME280;6524;51.368;11.984;2023-05-09T22:21:09;99748.06;;;10.85;46.57
12913;BME280;6524;51.368;11.984;2023-05-09T22:26:10;99734.72;;;10.75;46.92
12913;BME280;6524;51.368;11.984;2023-05-09T22:31:10;99739.44;;;11.16;45.80
12913;BME280;6524;51.368;11.984;2023-05-09T22:36:11;99734.81;;;10.73;46.73
12913;BME280;6524;51.368;11.984;2023-05-09T22:41:11;99734.75;;;10.40;47.82
12913;BME280;6524;51.368;11.984;2023-05-09T22:46:11;99728.03;;;10.58;47.24
12913;BME280;6524;51.368;11.984;2023-05-09T22:51:12;99726.50;;;10.67;47.11
12913;BME280;6524;51.368;11.984;2023-05-09T22:56:14;99722.94;;;10.33;48.12
12913;BME280;6524;51.368;11.984;2023-05-09T23:01:14;99714.84;;;10.47;47.58
12913;BME280;6524;51.368;11.984;2023-05-09T23:06:14;99705.41;;;10.20;48.52
12913;BME280;6524;51.368;11.984;2023-05-09T23:11:15;99700.16;;;9.96;48.79
12913;BME280;6524;51.368;11.984;2023-05-09T23:16:15;99696.25;;;10.02;48.84
12913;BME280;6524;51.368;11.984;2023-05-09T23:21:16;99690.97;;;9.78;49.61
12913;BME280;6524;51.368;11.984;2023-05-09T23:26:16;99693.31;;;9.46;50.13
12913;BME280;6524;51.368;11.984;2023-05-09T23:31:16;99694.66;;;9.99;49.72
12913;BME280;6524;51.368;11.984;2023-05-09T23:36:17;99681.47;;;9.75;50.03
12913;BME280;6524;51.368;11.984;2023-05-09T23:41:18;99674.50;;;9.74;49.90
12913;BME280;6524;51.368;11.984;2023-05-09T23:46:19;99676.84;;;9.18;51.77
12913;BME280;6524;51.368;11.984;2023-05-09T23:51:20;99668.09;;;9.42;50.89
12913;BME280;6524;51.368;11.984;2023-05-09T23:56:21;99676.84;;;9.18;51.60
